CheckWX is a tool to help pilots better visualize weather data.  It is not intended as a substitute for an official pre-flight weather briefing.

08:29:15 UTC

CYOD METAR
CFB Cold Lake Airport
Cold Lake, Canada
Current

29 mins ago

CYOD 070800Z 36002KT 8SM BKN110 M15/M16 A2970 RMK AC5 FROIN SLP100
Observed
Dec-7 @ 08:00 UTC
Wind
  • 360° at 2 KTS
Visibility
8 SM
Flight Rules
VFR
Cloud Levels
  • Broken at 11,000' AGL
Temperature
-15°C / 5°F
Dewpoint
-16°C / 3°F
Humidity
92%
Altimeter
29.7" Hg
Pressure
1005.72 hPa
Previous

1 hour ago

CYOD 070700Z 00000KT 8SM FEW160 M14/M15 A2972 RMK AC2 SLP106
Observed
Dec-7 @ 07:00 UTC
Visibility
8 SM
Flight Rules
VFR
Cloud Levels
  • Few at 16,000' AGL
Temperature
-14°C / 7°F
Dewpoint
-15°C / 5°F
Humidity
92%
Altimeter
29.72" Hg
Pressure
1006.42 hPa
Previous

2 hours ago

CYOD 070600Z 00000KT 12SM FEW160 M14/M16 A2974 RMK AC2 SLP117
Observed
Dec-7 @ 06:00 UTC
Visibility
12 SM
Flight Rules
VFR
Cloud Levels
  • Few at 16,000' AGL
Temperature
-14°C / 7°F
Dewpoint
-16°C / 3°F
Humidity
85%
Altimeter
29.74" Hg
Pressure
1007.12 hPa